sensor_id;sensor_type;location;lat;lon;timestamp;temperature;humidity
6666;DHT22;3369;49.906;8.598;2023-08-21T00:00:05;22.00;99.90
6666;DHT22;3369;49.906;8.598;2023-08-21T00:02:30;22.00;99.90
6666;DHT22;3369;49.906;8.598;2023-08-21T00:04:56;21.90;99.90
6666;DHT22;3369;49.906;8.598;2023-08-21T00:07:22;21.90;99.90
6666;DHT22;3369;49.906;8.598;2023-08-21T00:09:48;21.90;99.90
6666;DHT22;3369;49.906;8.598;2023-08-21T00:12:13;21.90;99.90
6666;DHT22;3369;49.906;8.598;2023-08-21T00:14:39;21.80;99.90
6666;DHT22;3369;49.906;8.598;2023-08-21T00:17:05;21.80;99.90
6666;DHT22;3369;49.906;8.598;2023-08-21T00:19:31;21.80;99.90
6666;DHT22;3369;49.906;8.598;2023-08-21T00:21:56;21.80;99.90
6666;DHT22;3369;49.906;8.598;2023-08-21T00:24:22;21.80;99.90
6666;DHT22;3369;49.906;8.598;2023-08-21T00:26:48;21.80;99.90
6666;DHT22;3369;49.906;8.598;2023-08-21T00:29:13;21.80;99.90
6666;DHT22;3369;49.906;8.598;2023-08-21T00:31:39;21.80;99.90
6666;DHT22;3369;49.906;8.598;2023-08-21T00:34:05;21.90;99.90
6666;DHT22;3369;49.906;8.598;2023-08-21T00:36:30;21.90;99.90
6666;DHT22;3369;49.906;8.598;2023-08-21T00:38:56;21.90;99.90
6666;DHT22;3369;49.906;8.598;2023-08-21T00:41:21;21.90;99.90
6666;DHT22;3369;49.906;8.598;2023-08-21T00:43:47;21.90;99.90
6666;DHT22;3369;49.906;8.598;2023-08-21T00:46:13;21.90;99.90
6666;DHT22;3369;49.906;8.598;2023-08-21T00:48:39;21.90;99.90
6666;DHT22;3369;49.906;8.598;2023-08-21T00:51:05;21.80;99.90
6666;DHT22;3369;49.906;8.598;2023-08-21T00:53:32;21.80;99.90
6666;DHT22;3369;49.906;8.598;2023-08-21T00:55:58;21.80;99.90
6666;DHT22;3369;49.906;8.598;2023-08-21T00:58:24;21.70;99.90
6666;DHT22;3369;49.906;8.598;2023-08-21T01:00:51;21.70;99.90
6666;DHT22;3369;49.906;8.598;2023-08-21T01:03:18;21.70;99.90
6666;DHT22;3369;49.906;8.598;2023-08-21T01:05:43;21.60;99.90
6666;DHT22;3369;49.906;8.598;2023-08-21T01:14:43;21.60;99.90
6666;DHT22;3369;49.906;8.598;2023-08-21T01:16:47;21.50;99.90
6666;DHT22;3369;49.906;8.598;2023-08-21T01:19:43;21.40;99.90
6666;DHT22;3369;49.906;8.598;2023-08-21T01:22:09;21.50;99.90
6666;DHT22;3369;49.906;8.598;2023-08-21T01:24:35;21.40;99.90
6666;DHT22;3369;49.906;8.598;2023-08-21T01:27:01;21.40;99.90
6666;DHT22;3369;49.906;8.598;2023-08-21T01:29:27;21.40;99.90
6666;DHT22;3369;49.906;8.598;2023-08-21T01:34:46;21.40;99.90
6666;DHT22;3369;49.906;8.598;2023-08-21T01:37:13;21.40;99.90
6666;DHT22;3369;49.906;8.598;2023-08-21T01:39:39;21.40;99.90
6666;DHT22;3369;49.906;8.598;2023-08-21T01:42:04;21.40;99.90
6666;DHT22;3369;49.906;8.598;2023-08-21T01:44:30;21.40;99.90
6666;DHT22;3369;49.906;8.598;2023-08-21T01:46:56;21.40;99.90
6666;DHT22;3369;49.906;8.598;2023-08-21T01:49:21;21.40;99.90
6666;DHT22;3369;49.906;8.598;2023-08-21T01:51:47;21.30;99.90
6666;DHT22;3369;49.906;8.598;2023-08-21T01:54:12;21.30;99.90
6666;DHT22;3369;49.906;8.598;2023-08-21T01:56:38;21.30;99.90
6666;DHT22;3369;49.906;8.598;2023-08-21T01:59:07;21.30;99.90
6666;DHT22;3369;49.906;8.598;2023-08-21T02:01:33;21.20;99.90
6666;DHT22;3369;49.906;8.598;2023-08-21T02:03:59;21.20;99.90
6666;DHT22;3369;49.906;8.598;2023-08-21T02:06:24;21.10;99.90
6666;DHT22;3369;49.906;8.598;2023-08-21T02:08:50;21.10;99.90
6666;DHT22;3369;49.906;8.598;2023-08-21T02:11:16;21.00;99.90
6666;DHT22;3369;49.906;8.598;2023-08-21T02:13:41;21.00;99.90
6666;DHT22;3369;49.906;8.598;2023-08-21T02:16:07;20.90;99.90
6666;DHT22;3369;49.906;8.598;2023-08-21T02:18:33;20.90;99.90
6666;DHT22;3369;49.906;8.598;2023-08-21T02:21:00;20.90;99.90
6666;DHT22;3369;49.906;8.598;2023-08-21T02:23:26;20.80;99.90
6666;DHT22;3369;49.906;8.598;2023-08-21T02:25:53;20.80;99.90
6666;DHT22;3369;49.906;8.598;2023-08-21T02:28:19;20.80;99.90
6666;DHT22;3369;49.906;8.598;2023-08-21T02:30:45;20.80;99.90
6666;DHT22;3369;49.906;8.598;2023-08-21T02:33:10;20.70;99.90
6666;DHT22;3369;49.906;8.598;2023-08-21T02:35:36;20.70;99.90
6666;DHT22;3369;49.906;8.598;2023-08-21T02:38:02;20.70;99.90
6666;DHT22;3369;49.906;8.598;2023-08-21T02:40:27;20.70;99.90
6666;DHT22;3369;49.906;8.598;2023-08-21T02:42:53;20.70;99.90
6666;DHT22;3369;49.906;8.598;2023-08-21T02:45:19;20.60;99.90
6666;DHT22;3369;49.906;8.598;2023-08-21T02:47:45;20.60;99.90
6666;DHT22;3369;49.906;8.598;2023-08-21T02:50:10;20.60;99.90
6666;DHT22;3369;49.906;8.598;2023-08-21T02:52:36;20.60;99.90
6666;DHT22;3369;49.906;8.598;2023-08-21T02:55:03;20.60;99.90
6666;DHT22;3369;49.906;8.598;2023-08-21T02:57:29;20.50;99.90
6666;DHT22;3369;49.906;8.598;2023-08-21T02:59:55;20.50;99.90
6666;DHT22;3369;49.906;8.598;2023-08-21T03:02:21;20.40;99.90
6666;DHT22;3369;49.906;8.598;2023-08-21T03:04:47;20.40;99.90
6666;DHT22;3369;49.906;8.598;2023-08-21T03:07:13;20.40;99.90
6666;DHT22;3369;49.906;8.598;2023-08-21T03:09:40;20.40;99.90
6666;DHT22;3369;49.906;8.598;2023-08-21T03:12:06;20.30;99.90
6666;DHT22;3369;49.906;8.598;2023-08-21T03:14:32;20.40;99.90
6666;DHT22;3369;49.906;8.598;2023-08-21T03:16:57;20.30;99.90
6666;DHT22;3369;49.906;8.598;2023-08-21T03:19:23;20.30;99.90
6666;DHT22;3369;49.906;8.598;2023-08-21T03:21:49;20.30;99.90
6666;DHT22;3369;49.906;8.598;2023-08-21T03:24:14;20.30;99.90
6666;DHT22;3369;49.906;8.598;2023-08-21T03:26:40;20.20;99.90
6666;DHT22;3369;49.906;8.598;2023-08-21T03:29:06;20.20;99.90
6666;DHT22;3369;49.906;8.598;2023-08-21T03:31:32;20.20;99.90
6666;DHT22;3369;49.906;8.598;2023-08-21T03:33:57;20.20;99.90
6666;DHT22;3369;49.906;8.598;2023-08-21T03:36:23;20.20;99.90
6666;DHT22;3369;49.906;8.598;2023-08-21T03:39:00;20.20;99.90
6666;DHT22;3369;49.906;8.598;2023-08-21T03:41:26;20.10;99.90
6666;DHT22;3369;49.906;8.598;2023-08-21T03:43:52;20.10;99.90
6666;DHT22;3369;49.906;8.598;2023-08-21T03:46:17;20.10;99.90
6666;DHT22;3369;49.906;8.598;2023-08-21T03:48:43;20.10;99.90
6666;DHT22;3369;49.906;8.598;2023-08-21T03:51:09;20.00;99.90
6666;DHT22;3369;49.906;8.598;2023-08-21T03:53:34;20.00;99.90
6666;DHT22;3369;49.906;8.598;2023-08-21T03:56:00;20.00;99.90
6666;DHT22;3369;49.906;8.598;2023-08-21T03:58:25;20.00;99.90
6666;DHT22;3369;49.906;8.598;2023-08-21T04:00:55;19.90;99.90
6666;DHT22;3369;49.906;8.598;2023-08-21T04:03:21;19.90;99.90
6666;DHT22;3369;49.906;8.598;2023-08-21T04:05:47;19.90;99.90
6666;DHT22;3369;49.906;8.598;2023-08-21T04:08:13;19.90;99.90
6666;DHT22;3369;49.906;8.598;2023-08-21T04:10:38;19.90;99.90
6666;DHT22;3369;49.906;8.598;2023-08-21T04:13:05;19.80;99.90
6666;DHT22;3369;49.906;8.598;2023-08-21T04:15:33;19.80;99.90
6666;DHT22;3369;49.906;8.598;2023-08-21T04:18:00;19.80;99.90
6666;DHT22;3369;49.906;8.598;2023-08-21T04:20:26;19.80;99.90
6666;DHT22;3369;49.906;8.598;2023-08-21T04:22:51;19.80;99.90
6666;DHT22;3369;49.906;8.598;2023-08-21T04:25:17;19.80;99.90
6666;DHT22;3369;49.906;8.598;2023-08-21T04:27:43;19.90;99.90
6666;DHT22;3369;49.906;8.598;2023-08-21T04:30:10;19.90;99.90
6666;DHT22;3369;49.906;8.598;2023-08-21T04:32:36;19.90;99.90
6666;DHT22;3369;49.906;8.598;2023-08-21T04:35:01;19.90;99.90
6666;DHT22;3369;49.906;8.598;2023-08-21T04:37:27;19.90;99.90
6666;DHT22;3369;49.906;8.598;2023-08-21T04:39:53;19.80;99.90
6666;DHT22;3369;49.906;8.598;2023-08-21T04:42:20;19.80;99.90
6666;DHT22;3369;49.906;8.598;2023-08-21T04:44:45;19.80;99.90
6666;DHT22;3369;49.906;8.598;2023-08-21T04:47:25;19.80;99.90
6666;DHT22;3369;49.906;8.598;2023-08-21T04:49:52;19.80;99.90
6666;DHT22;3369;49.906;8.598;2023-08-21T04:52:18;19.80;99.90
6666;DHT22;3369;49.906;8.598;2023-08-21T04:54:44;19.80;99.90
6666;DHT22;3369;49.906;8.598;2023-08-21T04:57:10;19.80;99.90
6666;DHT22;3369;49.906;8.598;2023-08-21T04:59:36;19.80;99.90
6666;DHT22;3369;49.906;8.598;2023-08-21T05:02:02;19.80;99.90
6666;DHT22;3369;49.906;8.598;2023-08-21T05:04:27;19.80;99.90
6666;DHT22;3369;49.906;8.598;2023-08-21T05:06:53;19.80;99.90
6666;DHT22;3369;49.906;8.598;2023-08-21T05:09:19;19.90;99.90
6666;DHT22;3369;49.906;8.598;2023-08-21T05:11:44;19.90;99.90
6666;DHT22;3369;49.906;8.598;2023-08-21T05:14:10;19.90;99.90
6666;DHT22;3369;49.906;8.598;2023-08-21T05:16:35;19.90;99.90
6666;DHT22;3369;49.906;8.598;2023-08-21T05:19:01;20.00;99.90
6666;DHT22;3369;49.906;8.598;2023-08-21T05:21:27;20.00;99.90
6666;DHT22;3369;49.906;8.598;2023-08-21T05:23:52;20.00;99.90
6666;DHT22;3369;49.906;8.598;2023-08-21T05:26:19;20.10;99.90
6666;DHT22;3369;49.906;8.598;2023-08-21T05:28:45;20.10;99.90
6666;DHT22;3369;49.906;8.598;2023-08-21T05:31:10;20.10;99.90
6666;DHT22;3369;49.906;8.598;2023-08-21T05:33:36;20.20;99.90
6666;DHT22;3369;49.906;8.598;2023-08-21T05:36:02;20.20;99.90
6666;DHT22;3369;49.906;8.598;2023-08-21T05:38:27;20.30;99.90
6666;DHT22;3369;49.906;8.598;2023-08-21T05:40:53;20.30;99.90
6666;DHT22;3369;49.906;8.598;2023-08-21T05:43:19;20.30;99.90
6666;DHT22;3369;49.906;8.598;2023-08-21T05:45:44;20.40;99.90
6666;DHT22;3369;49.906;8.598;2023-08-21T05:48:10;20.40;99.90
6666;DHT22;3369;49.906;8.598;2023-08-21T05:50:35;20.40;99.90
6666;DHT22;3369;49.906;8.598;2023-08-21T05:53:03;20.40;99.90
6666;DHT22;3369;49.906;8.598;2023-08-21T05:55:29;20.50;99.90
6666;DHT22;3369;49.906;8.598;2023-08-21T05:57:55;20.60;99.90
6666;DHT22;3369;49.906;8.598;2023-08-21T06:00:20;20.60;99.90
6666;DHT22;3369;49.906;8.598;2023-08-21T06:02:46;20.70;99.90
6666;DHT22;3369;49.906;8.598;2023-08-21T06:05:12;20.80;99.90
6666;DHT22;3369;49.906;8.598;2023-08-21T06:07:37;20.90;99.90
6666;DHT22;3369;49.906;8.598;2023-08-21T06:10:03;21.00;99.90
6666;DHT22;3369;49.906;8.598;2023-08-21T06:12:30;21.10;99.90
6666;DHT22;3369;49.906;8.598;2023-08-21T06:14:55;21.20;99.90
6666;DHT22;3369;49.906;8.598;2023-08-21T06:17:21;21.40;99.90
6666;DHT22;3369;49.906;8.598;2023-08-21T06:19:47;21.50;99.90
6666;DHT22;3369;49.906;8.598;2023-08-21T06:22:12;21.60;99.90
6666;DHT22;3369;49.906;8.598;2023-08-21T06:24:38;21.70;99.90
6666;DHT22;3369;49.906;8.598;2023-08-21T06:27:04;21.90;99.90
6666;DHT22;3369;49.906;8.598;2023-08-21T06:29:29;22.00;99.90
6666;DHT22;3369;49.906;8.598;2023-08-21T06:31:55;22.10;99.90
6666;DHT22;3369;49.906;8.598;2023-08-21T06:34:21;22.30;99.90
6666;DHT22;3369;49.906;8.598;2023-08-21T06:36:47;22.30;99.90
6666;DHT22;3369;49.906;8.598;2023-08-21T06:39:12;22.50;99.90
6666;DHT22;3369;49.906;8.598;2023-08-21T06:41:38;22.60;99.90
6666;DHT22;3369;49.906;8.598;2023-08-21T06:44:04;22.70;99.90
6666;DHT22;3369;49.906;8.598;2023-08-21T06:46:29;22.80;99.90
6666;DHT22;3369;49.906;8.598;2023-08-21T06:48:55;23.00;99.90
6666;DHT22;3369;49.906;8.598;2023-08-21T06:51:20;23.10;99.90
6666;DHT22;3369;49.906;8.598;2023-08-21T06:53:46;23.20;99.90
6666;DHT22;3369;49.906;8.598;2023-08-21T06:56:12;23.30;99.90
6666;DHT22;3369;49.906;8.598;2023-08-21T06:58:38;23.50;99.90
6666;DHT22;3369;49.906;8.598;2023-08-21T07:01:03;23.60;99.90
6666;DHT22;3369;49.906;8.598;2023-08-21T07:03:29;23.80;99.90
6666;DHT22;3369;49.906;8.598;2023-08-21T07:05:58;23.90;99.90
6666;DHT22;3369;49.906;8.598;2023-08-21T07:08:25;24.10;99.90
6666;DHT22;3369;49.906;8.598;2023-08-21T07:10:52;24.20;99.90
6666;DHT22;3369;49.906;8.598;2023-08-21T07:13:19;24.30;99.90
6666;DHT22;3369;49.906;8.598;2023-08-21T07:15:46;24.50;99.90
6666;DHT22;3369;49.906;8.598;2023-08-21T07:18:11;24.60;99.90
6666;DHT22;3369;49.906;8.598;2023-08-21T07:20:37;24.70;99.90
6666;DHT22;3369;49.906;8.598;2023-08-21T07:23:03;24.80;99.90
6666;DHT22;3369;49.906;8.598;2023-08-21T07:25:28;24.80;99.90
6666;DHT22;3369;49.906;8.598;2023-08-21T07:27:55;24.90;99.90
6666;DHT22;3369;49.906;8.598;2023-08-21T07:30:21;25.00;99.90
6666;DHT22;3369;49.906;8.598;2023-08-21T07:32:48;25.20;99.90
6666;DHT22;3369;49.906;8.598;2023-08-21T07:35:14;25.30;99.90
6666;DHT22;3369;49.906;8.598;2023-08-21T07:37:40;25.40;99.90
6666;DHT22;3369;49.906;8.598;2023-08-21T07:40:08;25.50;99.90
6666;DHT22;3369;49.906;8.598;2023-08-21T07:42:34;25.70;99.90
6666;DHT22;3369;49.906;8.598;2023-08-21T07:44:59;25.70;99.90
6666;DHT22;3369;49.906;8.598;2023-08-21T07:47:27;25.90;99.90
6666;DHT22;3369;49.906;8.598;2023-08-21T07:49:53;26.00;99.90
6666;DHT22;3369;49.906;8.598;2023-08-21T07:52:19;26.10;99.90
6666;DHT22;3369;49.906;8.598;2023-08-21T07:54:45;26.20;99.90
6666;DHT22;3369;49.906;8.598;2023-08-21T07:57:10;26.30;99.90
6666;DHT22;3369;49.906;8.598;2023-08-21T07:59:36;26.40;99.90
6666;DHT22;3369;49.906;8.598;2023-08-21T08:02:02;26.50;99.90
6666;DHT22;3369;49.906;8.598;2023-08-21T08:04:28;26.60;99.90
6666;DHT22;3369;49.906;8.598;2023-08-21T08:06:54;26.70;99.90
6666;DHT22;3369;49.906;8.598;2023-08-21T08:09:19;26.80;99.90
6666;DHT22;3369;49.906;8.598;2023-08-21T08:11:45;26.90;99.90
6666;DHT22;3369;49.906;8.598;2023-08-21T08:14:11;27.00;99.90
6666;DHT22;3369;49.906;8.598;2023-08-21T08:16:36;27.10;99.90
6666;DHT22;3369;49.906;8.598;2023-08-21T08:19:02;27.20;99.90
6666;DHT22;3369;49.906;8.598;2023-08-21T08:21:28;27.30;99.90
6666;DHT22;3369;49.906;8.598;2023-08-21T08:23:53;27.40;99.90
6666;DHT22;3369;49.906;8.598;2023-08-21T08:26:19;27.50;99.90
6666;DHT22;3369;49.906;8.598;2023-08-21T08:28:45;27.70;99.90
6666;DHT22;3369;49.906;8.598;2023-08-21T08:31:17;27.80;99.90
6666;DHT22;3369;49.906;8.598;2023-08-21T08:33:43;27.90;99.90
6666;DHT22;3369;49.906;8.598;2023-08-21T08:36:09;28.00;99.90
6666;DHT22;3369;49.906;8.598;2023-08-21T08:38:35;28.00;99.90
6666;DHT22;3369;49.906;8.598;2023-08-21T08:41:02;28.10;99.90
6666;DHT22;3369;49.906;8.598;2023-08-21T08:43:30;28.20;99.90
6666;DHT22;3369;49.906;8.598;2023-08-21T08:45:58;28.30;99.90
6666;DHT22;3369;49.906;8.598;2023-08-21T08:48:24;28.30;99.90
6666;DHT22;3369;49.906;8.598;2023-08-21T08:50:51;28.30;99.90
6666;DHT22;3369;49.906;8.598;2023-08-21T08:53:18;28.40;99.90
6666;DHT22;3369;49.906;8.598;2023-08-21T08:55:44;28.50;99.90
6666;DHT22;3369;49.906;8.598;2023-08-21T08:58:10;28.60;99.90
6666;DHT22;3369;49.906;8.598;2023-08-21T09:00:36;28.60;99.90
6666;DHT22;3369;49.906;8.598;2023-08-21T09:03:02;28.70;99.90
6666;DHT22;3369;49.906;8.598;2023-08-21T09:05:28;28.70;99.90
6666;DHT22;3369;49.906;8.598;2023-08-21T09:08:10;28.70;99.90
6666;DHT22;3369;49.906;8.598;2023-08-21T09:10:37;28.80;99.90
6666;DHT22;3369;49.906;8.598;2023-08-21T09:13:18;28.90;99.90
6666;DHT22;3369;49.906;8.598;2023-08-21T09:15:45;29.00;99.90
6666;DHT22;3369;49.906;8.598;2023-08-21T09:18:15;29.10;99.90
6666;DHT22;3369;49.906;8.598;2023-08-21T09:20:41;29.20;99.90
6666;DHT22;3369;49.906;8.598;2023-08-21T09:23:07;29.30;99.90
6666;DHT22;3369;49.906;8.598;2023-08-21T09:25:38;29.40;99.90
6666;DHT22;3369;49.906;8.598;2023-08-21T09:28:05;29.40;99.90
6666;DHT22;3369;49.906;8.598;2023-08-21T09:30:44;29.50;99.90
6666;DHT22;3369;49.906;8.598;2023-08-21T09:33:10;29.60;99.90
6666;DHT22;3369;49.906;8.598;2023-08-21T09:35:36;29.70;99.90
6666;DHT22;3369;49.906;8.598;2023-08-21T09:38:02;29.80;99.90
6666;DHT22;3369;49.906;8.598;2023-08-21T09:40:27;29.90;99.90
6666;DHT22;3369;49.906;8.598;2023-08-21T09:42:54;29.90;99.90
6666;DHT22;3369;49.906;8.598;2023-08-21T09:45:25;30.00;99.90
6666;DHT22;3369;49.906;8.598;2023-08-21T09:47:51;30.00;99.90
6666;DHT22;3369;49.906;8.598;2023-08-21T09:50:18;30.10;99.90
6666;DHT22;3369;49.906;8.598;2023-08-21T09:52:45;30.20;99.90
6666;DHT22;3369;49.906;8.598;2023-08-21T09:55:13;30.30;99.90
6666;DHT22;3369;49.906;8.598;2023-08-21T09:57:39;30.30;99.90
6666;DHT22;3369;49.906;8.598;2023-08-21T10:00:07;30.40;99.90
6666;DHT22;3369;49.906;8.598;2023-08-21T10:02:49;30.50;99.90
6666;DHT22;3369;49.906;8.598;2023-08-21T10:05:18;30.60;99.90
6666;DHT22;3369;49.906;8.598;2023-08-21T10:07:48;30.70;99.90
6666;DHT22;3369;49.906;8.598;2023-08-21T10:10:14;30.80;99.90
6666;DHT22;3369;49.906;8.598;2023-08-21T10:12:40;30.90;99.90
6666;DHT22;3369;49.906;8.598;2023-08-21T10:15:07;31.00;99.90
6666;DHT22;3369;49.906;8.598;2023-08-21T10:17:37;31.10;99.90
6666;DHT22;3369;49.906;8.598;2023-08-21T10:20:04;31.20;99.90
6666;DHT22;3369;49.906;8.598;2023-08-21T10:22:43;31.20;99.90
6666;DHT22;3369;49.906;8.598;2023-08-21T10:25:17;31.30;99.90
6666;DHT22;3369;49.906;8.598;2023-08-21T10:27:45;31.40;99.90
6666;DHT22;3369;49.906;8.598;2023-08-21T10:30:15;31.40;99.90
6666;DHT22;3369;49.906;8.598;2023-08-21T10:32:48;31.40;99.90
6666;DHT22;3369;49.906;8.598;2023-08-21T10:35:15;31.30;99.70
6666;DHT22;3369;49.906;8.598;2023-08-21T10:38:09;31.20;99.10
6666;DHT22;3369;49.906;8.598;2023-08-21T10:41:03;31.20;99.10
6666;DHT22;3369;49.906;8.598;2023-08-21T10:43:45;31.20;99.30
6666;DHT22;3369;49.906;8.598;2023-08-21T10:46:12;31.30;99.10
6666;DHT22;3369;49.906;8.598;2023-08-21T10:48:38;31.30;99.00
6666;DHT22;3369;49.906;8.598;2023-08-21T10:51:05;31.40;99.10
6666;DHT22;3369;49.906;8.598;2023-08-21T10:53:31;31.40;98.80
6666;DHT22;3369;49.906;8.598;2023-08-21T10:56:02;31.50;98.60
6666;DHT22;3369;49.906;8.598;2023-08-21T10:58:33;31.60;98.50
6666;DHT22;3369;49.906;8.598;2023-08-21T11:00:59;31.60;97.40
6666;DHT22;3369;49.906;8.598;2023-08-21T11:03:25;31.60;96.60
6666;DHT22;3369;49.906;8.598;2023-08-21T11:06:05;31.60;96.30
6666;DHT22;3369;49.906;8.598;2023-08-21T11:08:32;31.50;95.90
6666;DHT22;3369;49.906;8.598;2023-08-21T11:10:58;31.50;95.30
6666;DHT22;3369;49.906;8.598;2023-08-21T11:13:24;31.50;95.40
6666;DHT22;3369;49.906;8.598;2023-08-21T11:16:00;31.40;94.00
6666;DHT22;3369;49.906;8.598;2023-08-21T11:18:34;31.40;92.40
6666;DHT22;3369;49.906;8.598;2023-08-21T11:21:10;31.40;92.80
6666;DHT22;3369;49.906;8.598;2023-08-21T11:23:37;31.40;93.10
6666;DHT22;3369;49.906;8.598;2023-08-21T11:26:04;31.40;92.30
6666;DHT22;3369;49.906;8.598;2023-08-21T11:28:30;31.40;93.00
6666;DHT22;3369;49.906;8.598;2023-08-21T11:30:57;31.50;93.20
6666;DHT22;3369;49.906;8.598;2023-08-21T11:33:23;31.50;92.70
6666;DHT22;3369;49.906;8.598;2023-08-21T11:35:49;31.50;92.90
6666;DHT22;3369;49.906;8.598;2023-08-21T11:38:17;31.60;92.80
6666;DHT22;3369;49.906;8.598;2023-08-21T11:41:00;31.60;92.50
6666;DHT22;3369;49.906;8.598;2023-08-21T11:43:37;31.60;91.50
6666;DHT22;3369;49.906;8.598;2023-08-21T11:46:04;31.70;91.00
6666;DHT22;3369;49.906;8.598;2023-08-21T11:48:31;31.80;90.90
6666;DHT22;3369;49.906;8.598;2023-08-21T11:50:57;31.80;90.90
6666;DHT22;3369;49.906;8.598;2023-08-21T11:55:59;31.90;91.20
6666;DHT22;3369;49.906;8.598;2023-08-21T11:58:28;31.90;91.70
6666;DHT22;3369;49.906;8.598;2023-08-21T12:00:54;32.00;92.30
6666;DHT22;3369;49.906;8.598;2023-08-21T12:03:20;32.10;92.00
6666;DHT22;3369;49.906;8.598;2023-08-21T12:05:45;32.10;91.20
6666;DHT22;3369;49.906;8.598;2023-08-21T12:08:11;32.20;91.40
6666;DHT22;3369;49.906;8.598;2023-08-21T12:10:37;32.20;91.40
6666;DHT22;3369;49.906;8.598;2023-08-21T12:13:03;32.30;91.40
6666;DHT22;3369;49.906;8.598;2023-08-21T12:15:29;32.30;91.50
6666;DHT22;3369;49.906;8.598;2023-08-21T12:17:55;32.30;91.10
6666;DHT22;3369;49.906;8.598;2023-08-21T12:20:21;32.40;91.30
6666;DHT22;3369;49.906;8.598;2023-08-21T12:22:46;32.50;91.00
6666;DHT22;3369;49.906;8.598;2023-08-21T12:25:13;32.50;90.40
6666;DHT22;3369;49.906;8.598;2023-08-21T12:27:39;32.50;90.00
6666;DHT22;3369;49.906;8.598;2023-08-21T12:30:05;32.50;90.20
6666;DHT22;3369;49.906;8.598;2023-08-21T12:32:31;32.50;90.60
6666;DHT22;3369;49.906;8.598;2023-08-21T12:34:57;32.50;90.50
6666;DHT22;3369;49.906;8.598;2023-08-21T12:37:23;32.50;90.30
6666;DHT22;3369;49.906;8.598;2023-08-21T12:39:49;32.50;89.80
6666;DHT22;3369;49.906;8.598;2023-08-21T12:42:14;32.50;87.60
6666;DHT22;3369;49.906;8.598;2023-08-21T12:44:40;32.50;84.60
6666;DHT22;3369;49.906;8.598;2023-08-21T12:47:06;32.50;83.60
6666;DHT22;3369;49.906;8.598;2023-08-21T12:49:31;32.50;83.90
6666;DHT22;3369;49.906;8.598;2023-08-21T12:51:57;32.50;83.90
6666;DHT22;3369;49.906;8.598;2023-08-21T12:54:23;32.40;83.10
6666;DHT22;3369;49.906;8.598;2023-08-21T12:56:48;32.40;83.20
6666;DHT22;3369;49.906;8.598;2023-08-21T12:59:14;32.50;85.00
6666;DHT22;3369;49.906;8.598;2023-08-21T13:01:39;32.50;85.00
6666;DHT22;3369;49.906;8.598;2023-08-21T13:04:05;32.50;84.90
6666;DHT22;3369;49.906;8.598;2023-08-21T13:06:31;32.60;84.70
6666;DHT22;3369;49.906;8.598;2023-08-21T13:08:57;32.60;84.20
6666;DHT22;3369;49.906;8.598;2023-08-21T13:11:22;32.70;82.30
6666;DHT22;3369;49.906;8.598;2023-08-21T13:13:48;32.60;82.60
6666;DHT22;3369;49.906;8.598;2023-08-21T13:16:14;32.70;83.20
6666;DHT22;3369;49.906;8.598;2023-08-21T13:18:40;32.70;79.30
6666;DHT22;3369;49.906;8.598;2023-08-21T13:21:05;32.80;77.40
6666;DHT22;3369;49.906;8.598;2023-08-21T13:23:31;32.80;77.70
6666;DHT22;3369;49.906;8.598;2023-08-21T13:25:59;32.80;76.00
6666;DHT22;3369;49.906;8.598;2023-08-21T13:28:25;32.80;76.50
6666;DHT22;3369;49.906;8.598;2023-08-21T13:30:50;32.80;76.40
6666;DHT22;3369;49.906;8.598;2023-08-21T13:33:16;32.80;76.70
6666;DHT22;3369;49.906;8.598;2023-08-21T13:35:45;32.70;76.90
6666;DHT22;3369;49.906;8.598;2023-08-21T13:38:12;32.70;76.90
6666;DHT22;3369;49.906;8.598;2023-08-21T13:40:38;32.80;77.50
6666;DHT22;3369;49.906;8.598;2023-08-21T13:43:04;32.80;77.90
6666;DHT22;3369;49.906;8.598;2023-08-21T13:45:30;32.80;77.90
6666;DHT22;3369;49.906;8.598;2023-08-21T13:47:56;32.80;78.30
6666;DHT22;3369;49.906;8.598;2023-08-21T13:50:22;32.80;77.90
6666;DHT22;3369;49.906;8.598;2023-08-21T13:52:48;32.80;76.60
6666;DHT22;3369;49.906;8.598;2023-08-21T13:55:14;32.70;76.70
6666;DHT22;3369;49.906;8.598;2023-08-21T13:57:40;32.60;76.10
6666;DHT22;3369;49.906;8.598;2023-08-21T14:00:08;32.60;76.90
6666;DHT22;3369;49.906;8.598;2023-08-21T14:02:38;32.60;77.60
6666;DHT22;3369;49.906;8.598;2023-08-21T14:05:04;32.60;75.70
6666;DHT22;3369;49.906;8.598;2023-08-21T14:07:30;32.50;75.60
6666;DHT22;3369;49.906;8.598;2023-08-21T14:09:56;32.40;76.80
6666;DHT22;3369;49.906;8.598;2023-08-21T14:12:22;32.30;77.30
6666;DHT22;3369;49.906;8.598;2023-08-21T14:14:48;32.30;79.20
6666;DHT22;3369;49.906;8.598;2023-08-21T14:17:13;32.40;79.60
6666;DHT22;3369;49.906;8.598;2023-08-21T14:19:39;32.40;79.50
6666;DHT22;3369;49.906;8.598;2023-08-21T14:22:05;32.40;79.90
6666;DHT22;3369;49.906;8.598;2023-08-21T14:24:31;32.40;79.30
6666;DHT22;3369;49.906;8.598;2023-08-21T14:26:57;32.30;79.40
6666;DHT22;3369;49.906;8.598;2023-08-21T14:29:22;32.30;79.30
6666;DHT22;3369;49.906;8.598;2023-08-21T14:31:48;32.30;79.30
6666;DHT22;3369;49.906;8.598;2023-08-21T14:34:15;32.20;79.70
6666;DHT22;3369;49.906;8.598;2023-08-21T14:36:41;32.20;79.60
6666;DHT22;3369;49.906;8.598;2023-08-21T14:39:08;32.20;78.30
6666;DHT22;3369;49.906;8.598;2023-08-21T14:41:37;32.10;78.00
6666;DHT22;3369;49.906;8.598;2023-08-21T14:44:03;32.10;78.70
6666;DHT22;3369;49.906;8.598;2023-08-21T14:46:30;32.10;79.40
6666;DHT22;3369;49.906;8.598;2023-08-21T14:48:58;32.10;79.80
6666;DHT22;3369;49.906;8.598;2023-08-21T14:51:24;32.10;81.50
6666;DHT22;3369;49.906;8.598;2023-08-21T14:53:49;32.10;81.20
6666;DHT22;3369;49.906;8.598;2023-08-21T14:56:15;32.10;79.70
6666;DHT22;3369;49.906;8.598;2023-08-21T14:58:40;32.00;79.30
6666;DHT22;3369;49.906;8.598;2023-08-21T15:01:09;32.00;79.70
6666;DHT22;3369;49.906;8.598;2023-08-21T15:03:38;32.00;79.80
6666;DHT22;3369;49.906;8.598;2023-08-21T15:06:04;32.00;80.00
6666;DHT22;3369;49.906;8.598;2023-08-21T15:08:30;32.00;80.20
6666;DHT22;3369;49.906;8.598;2023-08-21T15:10:55;31.90;81.20
6666;DHT22;3369;49.906;8.598;2023-08-21T15:13:21;31.90;80.50
6666;DHT22;3369;49.906;8.598;2023-08-21T15:15:47;31.90;80.90
6666;DHT22;3369;49.906;8.598;2023-08-21T15:18:13;31.80;81.00
6666;DHT22;3369;49.906;8.598;2023-08-21T15:20:39;31.80;81.70
6666;DHT22;3369;49.906;8.598;2023-08-21T15:23:04;31.80;80.60
6666;DHT22;3369;49.906;8.598;2023-08-21T15:25:30;31.80;80.90
6666;DHT22;3369;49.906;8.598;2023-08-21T15:27:56;31.80;82.00
6666;DHT22;3369;49.906;8.598;2023-08-21T15:30:22;31.80;81.60
6666;DHT22;3369;49.906;8.598;2023-08-21T15:32:48;31.70;80.80
6666;DHT22;3369;49.906;8.598;2023-08-21T15:35:14;31.70;81.50
6666;DHT22;3369;49.906;8.598;2023-08-21T15:37:40;31.70;82.00
6666;DHT22;3369;49.906;8.598;2023-08-21T15:40:07;31.70;81.80
6666;DHT22;3369;49.906;8.598;2023-08-21T15:42:33;31.70;82.00
6666;DHT22;3369;49.906;8.598;2023-08-21T15:44:58;31.60;81.90
6666;DHT22;3369;49.906;8.598;2023-08-21T15:47:24;31.60;82.50
6666;DHT22;3369;49.906;8.598;2023-08-21T15:49:50;31.60;82.40
6666;DHT22;3369;49.906;8.598;2023-08-21T15:52:15;31.50;82.40
6666;DHT22;3369;49.906;8.598;2023-08-21T15:54:41;31.50;82.70
6666;DHT22;3369;49.906;8.598;2023-08-21T15:57:06;31.50;82.80
6666;DHT22;3369;49.906;8.598;2023-08-21T15:59:32;31.50;83.20
6666;DHT22;3369;49.906;8.598;2023-08-21T16:01:58;31.50;83.00
6666;DHT22;3369;49.906;8.598;2023-08-21T16:04:24;31.50;83.30
6666;DHT22;3369;49.906;8.598;2023-08-21T16:06:49;31.50;83.20
6666;DHT22;3369;49.906;8.598;2023-08-21T16:09:17;31.40;82.30